sensor_id;sensor_type;location;lat;lon;timestamp;temperature;humidity
13817;DHT22;6979;52.116;5.286;2023-01-24T00:01:19;8.00;99.90
13817;DHT22;6979;52.116;5.286;2023-01-24T00:03:46;8.00;99.90
13817;DHT22;6979;52.116;5.286;2023-01-24T00:06:15;8.00;99.90
13817;DHT22;6979;52.116;5.286;2023-01-24T00:08:42;8.00;99.90
13817;DHT22;6979;52.116;5.286;2023-01-24T00:11:10;8.00;99.90
13817;DHT22;6979;52.116;5.286;2023-01-24T00:13:38;8.00;99.90
13817;DHT22;6979;52.116;5.286;2023-01-24T00:16:07;8.00;99.90
13817;DHT22;6979;52.116;5.286;2023-01-24T00:18:34;8.00;99.90
13817;DHT22;6979;52.116;5.286;2023-01-24T00:21:02;8.00;99.90
13817;DHT22;6979;52.116;5.286;2023-01-24T00:23:30;8.00;99.90
13817;DHT22;6979;52.116;5.286;2023-01-24T00:25:57;8.00;99.90
13817;DHT22;6979;52.116;5.286;2023-01-24T00:28:24;8.00;99.90
13817;DHT22;6979;52.116;5.286;2023-01-24T00:30:51;8.00;99.90
13817;DHT22;6979;52.116;5.286;2023-01-24T00:33:18;8.00;99.90
13817;DHT22;6979;52.116;5.286;2023-01-24T00:35:45;8.00;99.90
13817;DHT22;6979;52.116;5.286;2023-01-24T00:38:12;8.00;99.90
13817;DHT22;6979;52.116;5.286;2023-01-24T00:40:40;8.00;99.90
13817;DHT22;6979;52.116;5.286;2023-01-24T00:43:07;8.00;99.90
13817;DHT22;6979;52.116;5.286;2023-01-24T00:45:35;8.00;99.90
13817;DHT22;6979;52.116;5.286;2023-01-24T00:48:03;8.00;99.90
13817;DHT22;6979;52.116;5.286;2023-01-24T00:50:30;8.00;99.90
13817;DHT22;6979;52.116;5.286;2023-01-24T00:52:57;8.00;99.90
13817;DHT22;6979;52.116;5.286;2023-01-24T00:55:24;8.00;99.90
13817;DHT22;6979;52.116;5.286;2023-01-24T00:57:52;8.00;99.90
13817;DHT22;6979;52.116;5.286;2023-01-24T01:00:20;8.00;99.90
13817;DHT22;6979;52.116;5.286;2023-01-24T01:02:49;8.00;99.90
13817;DHT22;6979;52.116;5.286;2023-01-24T01:05:17;7.90;99.90
13817;DHT22;6979;52.116;5.286;2023-01-24T01:07:44;7.90;99.90
13817;DHT22;6979;52.116;5.286;2023-01-24T01:10:11;8.00;99.90
13817;DHT22;6979;52.116;5.286;2023-01-24T01:12:38;7.90;99.90
13817;DHT22;6979;52.116;5.286;2023-01-24T01:15:07;7.90;99.90
13817;DHT22;6979;52.116;5.286;2023-01-24T01:17:34;7.90;99.90
13817;DHT22;6979;52.116;5.286;2023-01-24T01:20:05;7.90;99.90
13817;DHT22;6979;52.116;5.286;2023-01-24T01:22:35;7.90;99.90
13817;DHT22;6979;52.116;5.286;2023-01-24T01:25:02;7.90;99.90
13817;DHT22;6979;52.116;5.286;2023-01-24T01:27:29;7.90;99.90
13817;DHT22;6979;52.116;5.286;2023-01-24T01:29:55;7.90;99.90
13817;DHT22;6979;52.116;5.286;2023-01-24T01:32:24;7.90;99.90
13817;DHT22;6979;52.116;5.286;2023-01-24T01:34:51;7.90;99.90
13817;DHT22;6979;52.116;5.286;2023-01-24T01:37:18;7.90;99.90
13817;DHT22;6979;52.116;5.286;2023-01-24T01:39:45;7.80;99.90
13817;DHT22;6979;52.116;5.286;2023-01-24T01:42:12;7.80;99.90
13817;DHT22;6979;52.116;5.286;2023-01-24T01:44:40;7.80;99.90
13817;DHT22;6979;52.116;5.286;2023-01-24T01:47:22;7.90;99.90
13817;DHT22;6979;52.116;5.286;2023-01-24T01:49:54;7.90;99.90
13817;DHT22;6979;52.116;5.286;2023-01-24T01:52:25;7.90;99.90
13817;DHT22;6979;52.116;5.286;2023-01-24T01:54:55;7.80;99.90
13817;DHT22;6979;52.116;5.286;2023-01-24T01:57:27;7.80;99.90
13817;DHT22;6979;52.116;5.286;2023-01-24T01:59:58;7.90;99.90
13817;DHT22;6979;52.116;5.286;2023-01-24T02:02:26;7.80;99.90
13817;DHT22;6979;52.116;5.286;2023-01-24T02:04:58;7.80;99.90
13817;DHT22;6979;52.116;5.286;2023-01-24T02:07:30;7.80;99.90
13817;DHT22;6979;52.116;5.286;2023-01-24T02:09:58;7.80;99.90
13817;DHT22;6979;52.116;5.286;2023-01-24T02:12:28;7.80;99.90
13817;DHT22;6979;52.116;5.286;2023-01-24T02:15:01;7.80;99.90
13817;DHT22;6979;52.116;5.286;2023-01-24T02:17:46;7.70;99.90
13817;DHT22;6979;52.116;5.286;2023-01-24T02:20:20;7.70;99.90
13817;DHT22;6979;52.116;5.286;2023-01-24T02:22:57;7.70;99.90
13817;DHT22;6979;52.116;5.286;2023-01-24T02:25:31;7.70;99.90
13817;DHT22;6979;52.116;5.286;2023-01-24T02:28:03;7.70;99.90
13817;DHT22;6979;52.116;5.286;2023-01-24T02:30:30;7.70;99.90
13817;DHT22;6979;52.116;5.286;2023-01-24T02:32:58;7.70;99.90
13817;DHT22;6979;52.116;5.286;2023-01-24T02:35:27;7.80;99.90
13817;DHT22;6979;52.116;5.286;2023-01-24T02:37:56;7.80;99.90
13817;DHT22;6979;52.116;5.286;2023-01-24T02:40:25;7.80;99.90
13817;DHT22;6979;52.116;5.286;2023-01-24T02:42:55;7.80;99.90
13817;DHT22;6979;52.116;5.286;2023-01-24T02:45:26;7.80;99.90
13817;DHT22;6979;52.116;5.286;2023-01-24T02:47:54;7.70;99.90
13817;DHT22;6979;52.116;5.286;2023-01-24T02:50:23;7.80;99.90
13817;DHT22;6979;52.116;5.286;2023-01-24T02:52:50;7.80;99.90
13817;DHT22;6979;52.116;5.286;2023-01-24T02:55:36;7.80;99.90
13817;DHT22;6979;52.116;5.286;2023-01-24T02:58:24;7.70;99.90
13817;DHT22;6979;52.116;5.286;2023-01-24T03:00:51;7.70;99.90
13817;DHT22;6979;52.116;5.286;2023-01-24T03:03:19;7.70;99.90
13817;DHT22;6979;52.116;5.286;2023-01-24T03:05:46;7.70;99.90
13817;DHT22;6979;52.116;5.286;2023-01-24T03:08:29;7.70;99.90
13817;DHT22;6979;52.116;5.286;2023-01-24T03:10:57;7.70;99.90
13817;DHT22;6979;52.116;5.286;2023-01-24T03:13:26;7.70;99.90
13817;DHT22;6979;52.116;5.286;2023-01-24T03:16:14;7.70;99.90
13817;DHT22;6979;52.116;5.286;2023-01-24T03:18:59;7.80;99.90
13817;DHT22;6979;52.116;5.286;2023-01-24T03:21:45;7.70;99.90
13817;DHT22;6979;52.116;5.286;2023-01-24T03:24:39;7.80;99.90
13817;DHT22;6979;52.116;5.286;2023-01-24T03:27:23;7.80;99.90
13817;DHT22;6979;52.116;5.286;2023-01-24T03:30:10;7.80;99.90
13817;DHT22;6979;52.116;5.286;2023-01-24T03:33:01;7.80;99.90
13817;DHT22;6979;52.116;5.286;2023-01-24T03:35:47;7.70;99.90
13817;DHT22;6979;52.116;5.286;2023-01-24T03:38:23;7.70;99.90
13817;DHT22;6979;52.116;5.286;2023-01-24T03:41:09;7.70;99.90
13817;DHT22;6979;52.116;5.286;2023-01-24T03:43:38;7.70;99.90
13817;DHT22;6979;52.116;5.286;2023-01-24T03:46:04;7.70;99.90
13817;DHT22;6979;52.116;5.286;2023-01-24T03:48:45;7.70;99.90
13817;DHT22;6979;52.116;5.286;2023-01-24T03:51:13;7.70;99.90
13817;DHT22;6979;52.116;5.286;2023-01-24T03:53:58;7.70;99.90
13817;DHT22;6979;52.116;5.286;2023-01-24T03:56:30;7.70;99.90
13817;DHT22;6979;52.116;5.286;2023-01-24T03:58:59;7.70;99.90
13817;DHT22;6979;52.116;5.286;2023-01-24T04:01:29;7.70;99.90
13817;DHT22;6979;52.116;5.286;2023-01-24T04:04:06;7.70;99.90
13817;DHT22;6979;52.116;5.286;2023-01-24T04:06:34;7.70;99.90
13817;DHT22;6979;52.116;5.286;2023-01-24T04:09:03;7.70;99.90
13817;DHT22;6979;52.116;5.286;2023-01-24T04:11:32;7.70;99.90
13817;DHT22;6979;52.116;5.286;2023-01-24T04:14:08;7.70;99.90
13817;DHT22;6979;52.116;5.286;2023-01-24T04:16:42;7.70;99.90
13817;DHT22;6979;52.116;5.286;2023-01-24T04:19:16;7.70;99.90
13817;DHT22;6979;52.116;5.286;2023-01-24T04:21:43;7.70;99.90
13817;DHT22;6979;52.116;5.286;2023-01-24T04:24:11;7.60;99.90
13817;DHT22;6979;52.116;5.286;2023-01-24T04:26:41;7.60;99.90
13817;DHT22;6979;52.116;5.286;2023-01-24T04:29:14;7.60;99.90
13817;DHT22;6979;52.116;5.286;2023-01-24T04:31:42;7.60;99.90
13817;DHT22;6979;52.116;5.286;2023-01-24T04:34:20;7.60;99.90
13817;DHT22;6979;52.116;5.286;2023-01-24T04:36:47;7.60;99.90
13817;DHT22;6979;52.116;5.286;2023-01-24T04:39:14;7.60;99.90
13817;DHT22;6979;52.116;5.286;2023-01-24T04:41:53;7.60;99.90
13817;DHT22;6979;52.116;5.286;2023-01-24T04:44:20;7.60;99.90
13817;DHT22;6979;52.116;5.286;2023-01-24T04:46:47;7.60;99.90
13817;DHT22;6979;52.116;5.286;2023-01-24T04:49:16;7.60;99.90
13817;DHT22;6979;52.116;5.286;2023-01-24T04:51:48;7.60;99.90
13817;DHT22;6979;52.116;5.286;2023-01-24T04:54:20;7.60;99.90
13817;DHT22;6979;52.116;5.286;2023-01-24T04:56:48;7.50;99.90
13817;DHT22;6979;52.116;5.286;2023-01-24T04:59:16;7.50;99.90
13817;DHT22;6979;52.116;5.286;2023-01-24T05:01:44;7.60;99.90
13817;DHT22;6979;52.116;5.286;2023-01-24T05:04:26;7.50;99.90
13817;DHT22;6979;52.116;5.286;2023-01-24T05:06:55;7.50;99.90
13817;DHT22;6979;52.116;5.286;2023-01-24T05:09:22;7.50;99.90
13817;DHT22;6979;52.116;5.286;2023-01-24T05:11:56;7.50;99.90
13817;DHT22;6979;52.116;5.286;2023-01-24T05:14:23;7.50;99.90
13817;DHT22;6979;52.116;5.286;2023-01-24T05:16:50;7.50;99.90
13817;DHT22;6979;52.116;5.286;2023-01-24T05:19:17;7.50;99.90
13817;DHT22;6979;52.116;5.286;2023-01-24T05:21:44;7.50;99.90
13817;DHT22;6979;52.116;5.286;2023-01-24T05:24:16;7.50;99.90
13817;DHT22;6979;52.116;5.286;2023-01-24T05:26:44;7.50;99.90
13817;DHT22;6979;52.116;5.286;2023-01-24T05:29:14;7.50;99.90
13817;DHT22;6979;52.116;5.286;2023-01-24T05:31:45;7.50;99.90
13817;DHT22;6979;52.116;5.286;2023-01-24T05:34:13;7.50;99.90
13817;DHT22;6979;52.116;5.286;2023-01-24T05:36:39;7.50;99.90
13817;DHT22;6979;52.116;5.286;2023-01-24T05:39:06;7.50;99.90
13817;DHT22;6979;52.116;5.286;2023-01-24T05:41:35;7.50;99.90
13817;DHT22;6979;52.116;5.286;2023-01-24T05:44:03;7.50;99.90
13817;DHT22;6979;52.116;5.286;2023-01-24T05:46:36;7.50;99.90
13817;DHT22;6979;52.116;5.286;2023-01-24T05:49:13;7.50;99.90
13817;DHT22;6979;52.116;5.286;2023-01-24T05:51:41;7.50;99.90
13817;DHT22;6979;52.116;5.286;2023-01-24T05:54:10;7.50;99.90
13817;DHT22;6979;52.116;5.286;2023-01-24T05:56:57;7.50;99.90
13817;DHT22;6979;52.116;5.286;2023-01-24T05:59:34;7.50;99.90
13817;DHT22;6979;52.116;5.286;2023-01-24T06:02:01;7.40;99.90
13817;DHT22;6979;52.116;5.286;2023-01-24T06:04:29;7.50;99.90
13817;DHT22;6979;52.116;5.286;2023-01-24T06:06:55;7.50;99.90
13817;DHT22;6979;52.116;5.286;2023-01-24T06:09:23;7.50;99.90
13817;DHT22;6979;52.116;5.286;2023-01-24T06:11:53;7.50;99.90
13817;DHT22;6979;52.116;5.286;2023-01-24T06:14:40;7.50;99.90
13817;DHT22;6979;52.116;5.286;2023-01-24T06:17:07;7.50;99.90
13817;DHT22;6979;52.116;5.286;2023-01-24T06:19:35;7.50;99.90
13817;DHT22;6979;52.116;5.286;2023-01-24T06:22:11;7.50;99.90
13817;DHT22;6979;52.116;5.286;2023-01-24T06:24:44;7.50;99.90
13817;DHT22;6979;52.116;5.286;2023-01-24T06:27:28;7.40;99.90
13817;DHT22;6979;52.116;5.286;2023-01-24T06:29:55;7.40;99.90
13817;DHT22;6979;52.116;5.286;2023-01-24T06:32:36;7.50;99.90
13817;DHT22;6979;52.116;5.286;2023-01-24T06:35:13;7.40;99.90
13817;DHT22;6979;52.116;5.286;2023-01-24T06:37:46;7.40;99.90
13817;DHT22;6979;52.116;5.286;2023-01-24T06:40:15;7.40;99.90
13817;DHT22;6979;52.116;5.286;2023-01-24T06:42:44;7.40;99.90
13817;DHT22;6979;52.116;5.286;2023-01-24T06:45:13;7.40;99.90
13817;DHT22;6979;52.116;5.286;2023-01-24T06:47:40;7.30;99.90
13817;DHT22;6979;52.116;5.286;2023-01-24T06:50:13;7.30;99.90
13817;DHT22;6979;52.116;5.286;2023-01-24T06:52:40;7.30;99.90
13817;DHT22;6979;52.116;5.286;2023-01-24T06:55:09;7.30;99.90
13817;DHT22;6979;52.116;5.286;2023-01-24T06:57:36;7.30;99.90
13817;DHT22;6979;52.116;5.286;2023-01-24T07:00:07;7.30;99.90
13817;DHT22;6979;52.116;5.286;2023-01-24T07:02:34;7.30;99.90
13817;DHT22;6979;52.116;5.286;2023-01-24T07:05:01;7.30;99.90
13817;DHT22;6979;52.116;5.286;2023-01-24T07:07:30;7.30;99.90
13817;DHT22;6979;52.116;5.286;2023-01-24T07:09:57;7.30;99.90
13817;DHT22;6979;52.116;5.286;2023-01-24T07:12:24;7.30;99.90
13817;DHT22;6979;52.116;5.286;2023-01-24T07:14:51;7.30;99.90
13817;DHT22;6979;52.116;5.286;2023-01-24T07:17:20;7.30;99.90
13817;DHT22;6979;52.116;5.286;2023-01-24T07:19:47;7.30;99.90
13817;DHT22;6979;52.116;5.286;2023-01-24T07:22:15;7.20;99.90
13817;DHT22;6979;52.116;5.286;2023-01-24T07:24:42;7.30;99.90
13817;DHT22;6979;52.116;5.286;2023-01-24T07:27:10;7.30;99.90
13817;DHT22;6979;52.116;5.286;2023-01-24T07:29:37;7.30;99.90
13817;DHT22;6979;52.116;5.286;2023-01-24T07:32:04;7.30;99.90
13817;DHT22;6979;52.116;5.286;2023-01-24T07:34:32;7.30;99.90
13817;DHT22;6979;52.116;5.286;2023-01-24T07:36:59;7.30;99.90
13817;DHT22;6979;52.116;5.286;2023-01-24T07:39:27;7.30;99.90
13817;DHT22;6979;52.116;5.286;2023-01-24T07:41:54;7.30;99.90
13817;DHT22;6979;52.116;5.286;2023-01-24T07:44:21;7.30;99.90
13817;DHT22;6979;52.116;5.286;2023-01-24T07:46:48;7.30;99.90
13817;DHT22;6979;52.116;5.286;2023-01-24T07:49:15;7.30;99.90
13817;DHT22;6979;52.116;5.286;2023-01-24T07:51:43;7.30;99.90
13817;DHT22;6979;52.116;5.286;2023-01-24T07:54:10;7.30;99.90
13817;DHT22;6979;52.116;5.286;2023-01-24T07:56:37;7.30;99.90
13817;DHT22;6979;52.116;5.286;2023-01-24T07:59:04;7.30;99.90
13817;DHT22;6979;52.116;5.286;2023-01-24T08:01:31;7.30;99.90
13817;DHT22;6979;52.116;5.286;2023-01-24T08:03:58;7.30;99.90
13817;DHT22;6979;52.116;5.286;2023-01-24T08:06:25;7.20;99.90
13817;DHT22;6979;52.116;5.286;2023-01-24T08:08:53;7.20;99.90
13817;DHT22;6979;52.116;5.286;2023-01-24T08:11:20;7.20;99.90
13817;DHT22;6979;52.116;5.286;2023-01-24T08:13:47;7.20;99.90
13817;DHT22;6979;52.116;5.286;2023-01-24T08:16:15;7.20;99.90
13817;DHT22;6979;52.116;5.286;2023-01-24T08:18:43;7.20;99.90
13817;DHT22;6979;52.116;5.286;2023-01-24T08:21:10;7.10;99.90
13817;DHT22;6979;52.116;5.286;2023-01-24T08:23:39;7.20;99.90
13817;DHT22;6979;52.116;5.286;2023-01-24T08:26:07;7.20;99.90
13817;DHT22;6979;52.116;5.286;2023-01-24T08:28:34;7.20;99.90
13817;DHT22;6979;52.116;5.286;2023-01-24T08:31:01;7.20;99.90
13817;DHT22;6979;52.116;5.286;2023-01-24T08:33:28;7.10;99.90
13817;DHT22;6979;52.116;5.286;2023-01-24T08:35:55;7.20;99.90
13817;DHT22;6979;52.116;5.286;2023-01-24T08:38:24;7.10;99.90
13817;DHT22;6979;52.116;5.286;2023-01-24T08:40:51;7.20;99.90
13817;DHT22;6979;52.116;5.286;2023-01-24T08:43:20;7.20;99.90
13817;DHT22;6979;52.116;5.286;2023-01-24T08:45:47;7.20;99.90
13817;DHT22;6979;52.116;5.286;2023-01-24T08:48:14;7.20;99.90
13817;DHT22;6979;52.116;5.286;2023-01-24T08:50:41;7.20;99.90
13817;DHT22;6979;52.116;5.286;2023-01-24T08:53:07;7.20;99.90
13817;DHT22;6979;52.116;5.286;2023-01-24T08:55:35;7.20;99.90
13817;DHT22;6979;52.116;5.286;2023-01-24T08:58:03;7.30;99.90
13817;DHT22;6979;52.116;5.286;2023-01-24T09:00:32;7.30;99.90
13817;DHT22;6979;52.116;5.286;2023-01-24T09:02:59;7.30;99.90
13817;DHT22;6979;52.116;5.286;2023-01-24T09:05:26;7.30;99.90
13817;DHT22;6979;52.116;5.286;2023-01-24T09:07:56;7.30;99.90
13817;DHT22;6979;52.116;5.286;2023-01-24T09:10:24;7.30;99.90
13817;DHT22;6979;52.116;5.286;2023-01-24T09:12:51;7.40;99.90
13817;DHT22;6979;52.116;5.286;2023-01-24T09:15:18;7.30;99.90
13817;DHT22;6979;52.116;5.286;2023-01-24T09:17:46;7.40;99.90
13817;DHT22;6979;52.116;5.286;2023-01-24T09:20:13;7.40;99.90
13817;DHT22;6979;52.116;5.286;2023-01-24T09:22:40;7.40;99.90
13817;DHT22;6979;52.116;5.286;2023-01-24T09:25:08;7.40;99.90
13817;DHT22;6979;52.116;5.286;2023-01-24T09:27:35;7.40;99.90
13817;DHT22;6979;52.116;5.286;2023-01-24T09:30:10;7.40;99.90
13817;DHT22;6979;52.116;5.286;2023-01-24T09:32:37;7.50;99.90
13817;DHT22;6979;52.116;5.286;2023-01-24T09:35:06;7.50;99.90
13817;DHT22;6979;52.116;5.286;2023-01-24T09:37:33;7.50;99.90
13817;DHT22;6979;52.116;5.286;2023-01-24T09:40:00;7.50;99.90
13817;DHT22;6979;52.116;5.286;2023-01-24T09:42:31;7.40;99.90
13817;DHT22;6979;52.116;5.286;2023-01-24T09:45:11;7.40;99.90
13817;DHT22;6979;52.116;5.286;2023-01-24T09:47:43;7.40;99.90
13817;DHT22;6979;52.116;5.286;2023-01-24T09:50:16;7.40;99.90
13817;DHT22;6979;52.116;5.286;2023-01-24T09:52:47;7.40;99.90
13817;DHT22;6979;52.116;5.286;2023-01-24T09:55:19;7.40;99.90
13817;DHT22;6979;52.116;5.286;2023-01-24T09:57:54;7.40;99.90
13817;DHT22;6979;52.116;5.286;2023-01-24T10:00:25;7.40;99.90
13817;DHT22;6979;52.116;5.286;2023-01-24T10:02:54;7.40;99.90
13817;DHT22;6979;52.116;5.286;2023-01-24T10:05:27;7.40;99.90
13817;DHT22;6979;52.116;5.286;2023-01-24T10:08:14;7.40;99.90
13817;DHT22;6979;52.116;5.286;2023-01-24T10:10:47;7.40;99.90
13817;DHT22;6979;52.116;5.286;2023-01-24T10:13:30;7.40;99.90
13817;DHT22;6979;52.116;5.286;2023-01-24T10:16:08;7.40;99.90
13817;DHT22;6979;52.116;5.286;2023-01-24T10:18:57;7.40;99.90
13817;DHT22;6979;52.116;5.286;2023-01-24T10:21:46;7.40;99.90
13817;DHT22;6979;52.116;5.286;2023-01-24T10:24:17;7.40;99.90
13817;DHT22;6979;52.116;5.286;2023-01-24T10:26:49;7.40;99.90
13817;DHT22;6979;52.116;5.286;2023-01-24T10:29:17;7.50;99.90
13817;DHT22;6979;52.116;5.286;2023-01-24T10:31:52;7.40;99.90
13817;DHT22;6979;52.116;5.286;2023-01-24T10:34:28;7.50;99.90
13817;DHT22;6979;52.116;5.286;2023-01-24T10:37:02;7.50;99.90
13817;DHT22;6979;52.116;5.286;2023-01-24T10:39:30;7.50;99.90
13817;DHT22;6979;52.116;5.286;2023-01-24T10:41:57;7.50;99.90
13817;DHT22;6979;52.116;5.286;2023-01-24T10:44:25;7.60;99.90
13817;DHT22;6979;52.116;5.286;2023-01-24T10:47:17;7.60;99.90
13817;DHT22;6979;52.116;5.286;2023-01-24T10:49:52;7.60;99.90
13817;DHT22;6979;52.116;5.286;2023-01-24T10:52:22;7.60;99.90
13817;DHT22;6979;52.116;5.286;2023-01-24T10:54:59;7.60;99.90
13817;DHT22;6979;52.116;5.286;2023-01-24T10:57:33;7.60;99.90
13817;DHT22;6979;52.116;5.286;2023-01-24T11:00:05;7.60;99.90
13817;DHT22;6979;52.116;5.286;2023-01-24T11:02:32;7.60;99.90
13817;DHT22;6979;52.116;5.286;2023-01-24T11:05:02;7.60;99.90
13817;DHT22;6979;52.116;5.286;2023-01-24T11:07:33;7.60;99.90
13817;DHT22;6979;52.116;5.286;2023-01-24T11:10:09;7.60;99.90
13817;DHT22;6979;52.116;5.286;2023-01-24T11:12:48;7.60;99.90
13817;DHT22;6979;52.116;5.286;2023-01-24T11:15:20;7.70;99.90
13817;DHT22;6979;52.116;5.286;2023-01-24T11:17:53;7.60;99.90
13817;DHT22;6979;52.116;5.286;2023-01-24T11:20:27;7.70;99.90
13817;DHT22;6979;52.116;5.286;2023-01-24T11:23:05;7.70;99.90
13817;DHT22;6979;52.116;5.286;2023-01-24T11:25:32;7.70;99.90
13817;DHT22;6979;52.116;5.286;2023-01-24T11:27:59;7.70;99.90
13817;DHT22;6979;52.116;5.286;2023-01-24T11:30:26;7.60;99.90
13817;DHT22;6979;52.116;5.286;2023-01-24T11:33:17;7.70;99.90
13817;DHT22;6979;52.116;5.286;2023-01-24T11:35:51;7.60;99.90
13817;DHT22;6979;52.116;5.286;2023-01-24T11:38:25;7.70;99.90
13817;DHT22;6979;52.116;5.286;2023-01-24T11:41:13;7.60;99.90
13817;DHT22;6979;52.116;5.286;2023-01-24T11:44:16;7.60;99.90
13817;DHT22;6979;52.116;5.286;2023-01-24T11:46:52;7.60;99.90
13817;DHT22;6979;52.116;5.286;2023-01-24T11:49:41;7.60;99.90
13817;DHT22;6979;52.116;5.286;2023-01-24T11:52:23;7.60;99.90
13817;DHT22;6979;52.116;5.286;2023-01-24T11:55:02;7.60;99.90
13817;DHT22;6979;52.116;5.286;2023-01-24T11:57:41;7.60;99.90
13817;DHT22;6979;52.116;5.286;2023-01-24T12:00:19;7.60;99.90
13817;DHT22;6979;52.116;5.286;2023-01-24T12:03:06;7.60;99.90
13817;DHT22;6979;52.116;5.286;2023-01-24T12:05:43;7.60;99.90
13817;DHT22;6979;52.116;5.286;2023-01-24T12:08:24;7.60;99.90
13817;DHT22;6979;52.116;5.286;2023-01-24T12:11:12;7.60;99.90
13817;DHT22;6979;52.116;5.286;2023-01-24T12:13:47;7.70;99.90
13817;DHT22;6979;52.116;5.286;2023-01-24T12:16:28;7.70;99.90
13817;DHT22;6979;52.116;5.286;2023-01-24T12:19:23;7.70;99.90
13817;DHT22;6979;52.116;5.286;2023-01-24T12:21:59;7.70;99.90
13817;DHT22;6979;52.116;5.286;2023-01-24T12:24:28;7.70;99.90
13817;DHT22;6979;52.116;5.286;2023-01-24T12:27:01;7.80;99.90
13817;DHT22;6979;52.116;5.286;2023-01-24T12:29:32;7.70;99.90
13817;DHT22;6979;52.116;5.286;2023-01-24T12:32:02;7.80;99.90
13817;DHT22;6979;52.116;5.286;2023-01-24T12:34:38;7.80;99.90
13817;DHT22;6979;52.116;5.286;2023-01-24T12:37:12;7.80;99.90
13817;DHT22;6979;52.116;5.286;2023-01-24T12:39:52;7.80;99.90
13817;DHT22;6979;52.116;5.286;2023-01-24T12:42:31;7.90;99.90
13817;DHT22;6979;52.116;5.286;2023-01-24T12:45:05;7.90;99.90
13817;DHT22;6979;52.116;5.286;2023-01-24T12:47:40;8.00;99.90
13817;DHT22;6979;52.116;5.286;2023-01-24T12:50:20;7.90;99.90
13817;DHT22;6979;52.116;5.286;2023-01-24T12:53:01;8.00;99.90
13817;DHT22;6979;52.116;5.286;2023-01-24T12:55:35;8.00;99.90
13817;DHT22;6979;52.116;5.286;2023-01-24T12:58:10;8.00;99.90
13817;DHT22;6979;52.116;5.286;2023-01-24T13:00:49;7.90;99.90
13817;DHT22;6979;52.116;5.286;2023-01-24T13:03:31;8.00;99.90
13817;DHT22;6979;52.116;5.286;2023-01-24T13:06:05;7.90;99.90
13817;DHT22;6979;52.116;5.286;2023-01-24T13:08:47;8.00;99.90
13817;DHT22;6979;52.116;5.286;2023-01-24T13:11:20;8.00;99.90
13817;DHT22;6979;52.116;5.286;2023-01-24T13:13:58;8.00;99.90
13817;DHT22;6979;52.116;5.286;2023-01-24T13:16:49;8.00;99.90
13817;DHT22;6979;52.116;5.286;2023-01-24T13:19:32;8.00;99.90
13817;DHT22;6979;52.116;5.286;2023-01-24T13:22:13;8.00;99.90
13817;DHT22;6979;52.116;5.286;2023-01-24T13:24:50;8.10;99.90
13817;DHT22;6979;52.116;5.286;2023-01-24T13:27:35;8.10;99.90
13817;DHT22;6979;52.116;5.286;2023-01-24T13:30:18;8.10;99.90
13817;DHT22;6979;52.116;5.286;2023-01-24T13:32:47;8.10;99.90
13817;DHT22;6979;52.116;5.286;2023-01-24T13:35:18;8.10;99.90
13817;DHT22;6979;52.116;5.286;2023-01-24T13:37:50;8.10;99.90
13817;DHT22;6979;52.116;5.286;2023-01-24T13:40:26;8.10;99.90
13817;DHT22;6979;52.116;5.286;2023-01-24T13:42:56;8.10;99.90
13817;DHT22;6979;52.116;5.286;2023-01-24T13:45:49;8.10;99.90
13817;DHT22;6979;52.116;5.286;2023-01-24T13:48:54;8.10;99.90
13817;DHT22;6979;52.116;5.286;2023-01-24T13:51:47;8.10;99.90
13817;DHT22;6979;52.116;5.286;2023-01-24T13:54:35;8.00;99.90
13817;DHT22;6979;52.116;5.286;2023-01-24T13:57:22;7.90;99.90
13817;DHT22;6979;52.116;5.286;2023-01-24T14:00:14;7.90;99.90
13817;DHT22;6979;52.116;5.286;2023-01-24T14:02:59;7.90;99.90
13817;DHT22;6979;52.116;5.286;2023-01-24T14:05:46;7.90;99.90
13817;DHT22;6979;52.116;5.286;2023-01-24T14:08:32;7.90;99.90
13817;DHT22;6979;52.116;5.286;2023-01-24T14:11:20;7.90;99.90
13817;DHT22;6979;52.116;5.286;2023-01-24T14:13:59;7.90;99.90
13817;DHT22;6979;52.116;5.286;2023-01-24T14:16:55;7.90;99.90
13817;DHT22;6979;52.116;5.286;2023-01-24T14:19:26;7.90;99.90
13817;DHT22;6979;52.116;5.286;2023-01-24T14:21:57;7.80;99.90
13817;DHT22;6979;52.116;5.286;2023-01-24T14:24:28;7.80;99.90
13817;DHT22;6979;52.116;5.286;2023-01-24T14:26:58;7.80;99.90
13817;DHT22;6979;52.116;5.286;2023-01-24T14:29:33;7.80;99.90
13817;DHT22;6979;52.116;5.286;2023-01-24T14:32:02;7.80;99.90
13817;DHT22;6979;52.116;5.286;2023-01-24T14:34:37;7.80;99.90
13817;DHT22;6979;52.116;5.286;2023-01-24T14:37:09;7.80;99.90
13817;DHT22;6979;52.116;5.286;2023-01-24T14:39:36;7.80;99.90
13817;DHT22;6979;52.116;5.286;2023-01-24T14:42:04;7.80;99.90
13817;DHT22;6979;52.116;5.286;2023-01-24T14:44:36;7.80;99.90
13817;DHT22;6979;52.116;5.286;2023-01-24T14:47:05;7.80;99.90
13817;DHT22;6979;52.116;5.286;2023-01-24T14:49:36;7.70;99.90
13817;DHT22;6979;52.116;5.286;2023-01-24T14:52:16;7.80;99.90
13817;DHT22;6979;52.116;5.286;2023-01-24T14:54:44;7.80;99.90
13817;DHT22;6979;52.116;5.286;2023-01-24T14:57:19;7.80;99.90
13817;DHT22;6979;52.116;5.286;2023-01-24T14:59:58;7.80;99.90
13817;DHT22;6979;52.116;5.286;2023-01-24T15:02:25;7.70;99.90
13817;DHT22;6979;52.116;5.286;2023-01-24T15:04:54;7.80;99.90
13817;DHT22;6979;52.116;5.286;2023-01-24T15:07:21;7.70;99.90
13817;DHT22;6979;52.116;5.286;2023-01-24T15:09:49;7.70;99.90
13817;DHT22;6979;52.116;5.286;2023-01-24T15:12:25;7.70;99.90
13817;DHT22;6979;52.116;5.286;2023-01-24T15:14:54;7.70;99.90
13817;DHT22;6979;52.116;5.286;2023-01-24T15:17:23;7.60;99.90
13817;DHT22;6979;52.116;5.286;2023-01-24T15:19:54;7.70;99.90
13817;DHT22;6979;52.116;5.286;2023-01-24T15:22:26;7.60;99.90
13817;DHT22;6979;52.116;5.286;2023-01-24T15:24:54;7.60;99.90
13817;DHT22;6979;52.116;5.286;2023-01-24T15:27:32;7.60;99.90
13817;DHT22;6979;52.116;5.286;2023-01-24T15:30:19;7.60;99.90
13817;DHT22;6979;52.116;5.286;2023-01-24T15:32:47;7.60;99.90
13817;DHT22;6979;52.116;5.286;2023-01-24T15:35:33;7.70;99.90
13817;DHT22;6979;52.116;5.286;2023-01-24T15:38:25;7.60;99.90
13817;DHT22;6979;52.116;5.286;2023-01-24T15:41:18;7.60;99.90
13817;DHT22;6979;52.116;5.286;2023-01-24T15:43:53;7.60;99.90
13817;DHT22;6979;52.116;5.286;2023-01-24T15:46:29;7.60;99.90
13817;DHT22;6979;52.116;5.286;2023-01-24T15:52:15;7.60;99.90
13817;DHT22;6979;52.116;5.286;2023-01-24T15:54:43;7.50;99.90
13817;DHT22;6979;52.116;5.286;2023-01-24T15:57:20;7.50;99.90
13817;DHT22;6979;52.116;5.286;2023-01-24T15:59:50;7.40;99.90
13817;DHT22;6979;52.116;5.286;2023-01-24T16:02:17;7.40;99.90
13817;DHT22;6979;52.116;5.286;2023-01-24T16:04:44;7.40;99.90
13817;DHT22;6979;52.116;5.286;2023-01-24T16:07:15;7.30;99.90
13817;DHT22;6979;52.116;5.286;2023-01-24T16:09:43;7.30;99.90
13817;DHT22;6979;52.116;5.286;2023-01-24T16:12:13;7.30;99.90
13817;DHT22;6979;52.116;5.286;2023-01-24T16:15:00;7.30;99.90
13817;DHT22;6979;52.116;5.286;2023-01-24T16:17:27;7.30;99.90
13817;DHT22;6979;52.116;5.286;2023-01-24T16:19:54;7.20;99.90
13817;DHT22;6979;52.116;5.286;2023-01-24T16:22:22;7.20;99.90
13817;DHT22;6979;52.116;5.286;2023-01-24T16:24:49;7.20;99.90
13817;DHT22;6979;52.116;5.286;2023-01-24T16:27:16;7.20;99.90
13817;DHT22;6979;52.116;5.286;2023-01-24T16:29:53;7.20;99.90
13817;DHT22;6979;52.116;5.286;2023-01-24T16:32:21;7.20;99.90
13817;DHT22;6979;52.116;5.286;2023-01-24T16:34:49;7.20;99.90
13817;DHT22;6979;52.116;5.286;2023-01-24T16:37:16;7.10;99.90
13817;DHT22;6979;52.116;5.286;2023-01-24T16:39:45;7.10;99.90